Airfield :
LOGIN :

Register | Disclaimer

   EN    FR    IT 

 










Legend :    VFR   Marginal VFR   IFR   Intensive IFR   Very Intensive IFR
Visi :
Ceiling :
>= 8 km
>= 3000ft
5 to 8 km
1000 to 3000 ft
1500m to 5 km
500 to 1000 ft
800 to 1500m
200 to 500 ft
< 800m
< 200 ft
Symbols :   Thunderstorms  Fog  Heavy snow  Heavy precipitations  Wind > 20 kt
SIGMETs :     Misc.  Thunderstorms  Icing  Turbulence  Mountain Waves  Volcanic Ashes






- Airport Elevation : 302 ft
- IATA code : MAH


LEMH - Menorca

CURRENT METAR :
  • 070230Z AUTO 35006KT CAVOK 11/10 Q1014

EXPIRED METARs :
  • 070200Z AUTO 35006KT CAVOK 11/11 Q1014
  • 070130Z AUTO 34007KT CAVOK 11/10 Q1014
  • 070100Z AUTO 34006KT CAVOK 11/11 Q1014
  • 070030Z AUTO 35006KT CAVOK 11/11 Q1014
  • 070000Z AUTO 34005KT CAVOK 11/11 Q1015

TAF TAF LEMH
Valid from the 07 at 03:00 until the 08 at 03:00 UTC


070200Z 0703/0803 34004KT 9999 SCT018 TX16/0712Z TN08/0707Z
PROB30
TEMPO 0703/0708 4000 BR
BECMG 0713/0714 VRB03KT
BECMG 0800/0802 18010KT
TEMPO 0721/0803 3000 SHRA FEW010TCU



MET'MAP, your aeronautical weather chart ! - Copyright ORBIFLY December 2007 - Disclaimer

ORBIFLY MET'MAP TEAM :

Programming & Development : Alexandra Zaïnal
Original concept : Baudouin d'Aumeries
Technical & hardware support : Manuel Goepfert
Assistance : Marc-Olivier Méhu




SOURCES & CREDITS :

   NOAA